createdAt,value
2023-03-26T00:00:22.873Z,1.20
2023-03-26T00:03:18.406Z,1.60
2023-03-26T00:06:03.465Z,1.40
2023-03-26T00:08:38.376Z,1.50
2023-03-26T00:11:15.805Z,1.80
2023-03-26T00:13:50.706Z,1.80
2023-03-26T00:16:27.838Z,1.70
2023-03-26T00:19:02.883Z,1.80
2023-03-26T00:21:37.460Z,1.40
2023-03-26T00:24:16.410Z,1.50
2023-03-26T00:26:53.569Z,1.10
2023-03-26T00:29:28.050Z,1.20
2023-03-26T00:32:02.251Z,1.40
2023-03-26T00:34:36.385Z,1.70
2023-03-26T00:37:12.578Z,1.20
2023-03-26T00:39:49.282Z,1.50
2023-03-26T00:42:23.579Z,1.60
2023-03-26T00:44:57.940Z,1.50
2023-03-26T00:47:32.983Z,1.40
2023-03-26T00:50:15.490Z,1.20
2023-03-26T00:52:50.694Z,1.10
2023-03-26T00:55:24.808Z,1.10
2023-03-26T00:57:59.475Z,1.00
2023-03-26T01:00:40.031Z,1.20
2023-03-26T01:03:26.726Z,1.30
2023-03-26T01:06:08.227Z,1.20
2023-03-26T01:08:46.745Z,1.30
2023-03-26T01:11:24.812Z,1.20
2023-03-26T01:14:03.945Z,1.30
2023-03-26T01:16:45.194Z,0.70
2023-03-26T01:19:30.715Z,1.40
2023-03-26T01:22:05.238Z,1.30
2023-03-26T01:24:39.326Z,1.30
2023-03-26T01:27:29.410Z,1.10
2023-03-26T01:30:15.004Z,1.00
2023-03-26T01:33:03.424Z,1.30
2023-03-26T01:35:54.308Z,1.80
2023-03-26T01:38:39.364Z,1.50
2023-03-26T01:41:21.648Z,1.30
2023-03-26T01:44:06.089Z,1.20
2023-03-26T01:46:41.127Z,1.30
2023-03-26T01:49:15.776Z,1.10
2023-03-26T01:51:50.042Z,1.10
2023-03-26T01:54:29.787Z,1.50
2023-03-26T01:57:16.958Z,1.60
2023-03-26T02:00:12.958Z,1.50
2023-03-26T02:03:17.814Z,1.30
2023-03-26T02:05:59.717Z,1.70
2023-03-26T02:08:41.404Z,1.30
2023-03-26T02:11:17.705Z,1.50
2023-03-26T02:13:53.162Z,1.40
2023-03-26T02:16:27.730Z,1.60
2023-03-26T02:19:02.141Z,1.40
2023-03-26T02:21:36.265Z,1.60
2023-03-26T02:24:12.645Z,1.40
2023-03-26T02:26:47.014Z,1.50
2023-03-26T02:29:22.296Z,1.30
2023-03-26T02:31:56.771Z,1.50
2023-03-26T02:34:30.931Z,1.70
2023-03-26T02:37:05.091Z,1.70
2023-03-26T02:39:39.295Z,1.50
2023-03-26T02:42:22.695Z,1.40
2023-03-26T02:44:56.935Z,1.30
2023-03-26T02:47:57.769Z,1.70
2023-03-26T02:50:50.141Z,1.40
2023-03-26T02:53:33.405Z,1.70
2023-03-26T02:56:31.010Z,1.60
2023-03-26T02:59:15.473Z,1.40
2023-03-26T03:01:50.284Z,1.50
2023-03-26T03:04:24.867Z,1.80
2023-03-26T03:07:00.069Z,1.30
2023-03-26T03:09:34.858Z,1.30
2023-03-26T03:12:41.498Z,1.40
2023-03-26T03:15:17.324Z,1.10
2023-03-26T03:17:51.694Z,1.30
2023-03-26T03:20:25.898Z,0.70
2023-03-26T03:23:00.327Z,0.80
2023-03-26T03:25:34.912Z,0.80
2023-03-26T03:28:10.463Z,0.60
2023-03-26T03:30:45.931Z,0.70
2023-03-26T03:33:29.941Z,0.70
2023-03-26T03:36:07.178Z,0.70
2023-03-26T03:38:42.705Z,0.70
2023-03-26T03:41:18.598Z,0.80
2023-03-26T03:43:53.074Z,0.70
2023-03-26T03:46:32.814Z,0.80
2023-03-26T03:49:06.947Z,0.70
2023-03-26T03:51:43.339Z,0.80
2023-03-26T03:54:26.016Z,0.70
2023-03-26T03:57:34.796Z,0.90
2023-03-26T04:00:16.600Z,1.40
2023-03-26T04:02:50.778Z,0.90
2023-03-26T04:05:25.340Z,0.90
2023-03-26T04:08:00.915Z,0.90
2023-03-26T04:11:05.055Z,0.80
2023-03-26T04:13:57.788Z,1.00
2023-03-26T04:16:40.616Z,0.90
2023-03-26T04:19:14.752Z,0.70
2023-03-26T04:21:49.632Z,1.00
2023-03-26T04:24:26.386Z,0.90
2023-03-26T04:27:28.501Z,1.00
2023-03-26T04:30:15.097Z,1.00
2023-03-26T04:32:49.700Z,1.00
2023-03-26T04:35:24.693Z,1.00
2023-03-26T04:38:02.014Z,0.90
2023-03-26T04:40:42.665Z,1.10
2023-03-26T04:43:42.508Z,0.70
2023-03-26T04:46:18.625Z,0.60
2023-03-26T04:48:58.040Z,0.70
2023-03-26T04:51:41.849Z,0.60
2023-03-26T04:54:29.445Z,0.80
2023-03-26T04:57:15.620Z,0.70
2023-03-26T04:59:56.483Z,0.50
2023-03-26T05:02:32.601Z,0.70
2023-03-26T05:05:07.523Z,0.80
2023-03-26T05:07:44.242Z,0.90
2023-03-26T05:10:21.529Z,0.70
2023-03-26T05:13:11.744Z,0.70
2023-03-26T05:15:50.434Z,0.70
2023-03-26T05:18:44.827Z,0.40
2023-03-26T05:21:18.936Z,0.50
2023-03-26T05:23:53.208Z,0.60
2023-03-26T05:26:29.289Z,0.60
2023-03-26T05:29:05.180Z,0.60
2023-03-26T05:31:48.823Z,0.60
2023-03-26T05:34:26.507Z,0.50
2023-03-26T05:37:01.027Z,0.40
2023-03-26T05:39:59.799Z,0.50
2023-03-26T05:42:49.118Z,0.60
2023-03-26T05:45:43.748Z,0.70
2023-03-26T05:48:24.896Z,0.50
2023-03-26T05:51:01.688Z,0.60
2023-03-26T05:53:37.754Z,0.40
2023-03-26T05:56:30.365Z,0.60
2023-03-26T05:59:22.966Z,0.60
2023-03-26T06:02:16.414Z,0.60
2023-03-26T06:05:14.092Z,0.50
2023-03-26T06:08:11.732Z,0.70
2023-03-26T06:10:47.044Z,0.30
2023-03-26T06:13:22.948Z,0.70
2023-03-26T06:15:59.102Z,0.40
2023-03-26T06:18:42.835Z,0.70
2023-03-26T06:21:39.258Z,0.60
2023-03-26T06:24:20.377Z,0.50
2023-03-26T06:27:10.428Z,0.70
2023-03-26T06:29:56.813Z,0.60
2023-03-26T06:32:45.106Z,0.90
2023-03-26T06:35:30.007Z,0.90
2023-03-26T06:38:04.127Z,1.00
2023-03-26T06:40:39.169Z,0.70
2023-03-26T06:43:45.720Z,0.80
2023-03-26T06:46:43.933Z,0.80
2023-03-26T06:49:39.410Z,1.00
2023-03-26T06:52:32.611Z,0.80
2023-03-26T06:55:17.742Z,0.80
2023-03-26T06:58:12.258Z,0.80
2023-03-26T07:01:15.791Z,0.90
2023-03-26T07:04:09.349Z,1.00
2023-03-26T07:07:02.395Z,0.90
2023-03-26T07:09:55.510Z,0.70
2023-03-26T07:13:08.453Z,0.90
2023-03-26T07:16:02.564Z,0.60
2023-03-26T07:18:57.241Z,0.70
2023-03-26T07:21:38.131Z,1.00
2023-03-26T07:24:25.421Z,0.90
2023-03-26T07:27:36.209Z,1.10
2023-03-26T07:30:21.098Z,0.80
2023-03-26T07:33:30.381Z,0.80
2023-03-26T07:36:39.780Z,0.70
2023-03-26T07:39:48.153Z,0.60
2023-03-26T07:43:11.221Z,0.70
2023-03-26T07:46:05.737Z,0.60
2023-03-26T07:49:17.991Z,0.80
2023-03-26T07:52:22.096Z,0.80
2023-03-26T07:55:23.420Z,0.80
2023-03-26T07:58:42.449Z,0.70
2023-03-26T08:01:54.614Z,0.70
2023-03-26T08:04:56.792Z,0.80
2023-03-26T08:08:13.852Z,0.70
2023-03-26T08:11:14.192Z,0.90
2023-03-26T08:14:24.918Z,0.80
2023-03-26T08:17:07.219Z,0.90
2023-03-26T08:19:58.544Z,0.70
2023-03-26T08:22:41.131Z,1.00
2023-03-26T08:25:35.573Z,0.70
2023-03-26T08:28:39.566Z,1.00
2023-03-26T08:31:17.748Z,0.90
2023-03-26T08:33:51.890Z,1.00
2023-03-26T08:36:26.957Z,1.10
2023-03-26T08:39:01.357Z,0.90
2023-03-26T08:42:46.037Z,0.70
2023-03-26T08:46:04.837Z,0.90
2023-03-26T08:49:26.720Z,0.80
2023-03-26T08:52:50.501Z,0.80
2023-03-26T08:55:50.789Z,0.90
2023-03-26T08:59:15.075Z,1.10
2023-03-26T09:02:28.332Z,0.70
2023-03-26T09:05:54.911Z,0.80
2023-03-26T09:09:18.760Z,0.60
2023-03-26T09:12:36.683Z,0.60
2023-03-26T09:16:13.851Z,0.50
2023-03-26T09:19:21.608Z,0.80
2023-03-26T09:22:49.580Z,1.10
2023-03-26T09:26:02.917Z,0.90
2023-03-26T09:29:26.983Z,0.60
2023-03-26T09:32:31.653Z,0.50
2023-03-26T09:36:07.184Z,0.50
2023-03-26T09:38:56.598Z,0.40
2023-03-26T09:41:45.349Z,0.60
2023-03-26T09:44:54.516Z,0.50
2023-03-26T09:47:54.195Z,0.50
2023-03-26T09:51:06.217Z,0.40
2023-03-26T09:54:11.805Z,0.50
2023-03-26T09:57:00.581Z,0.70
2023-03-26T10:00:11.074Z,0.50
2023-03-26T10:03:18.861Z,0.80
2023-03-26T10:06:26.584Z,0.70
2023-03-26T10:09:19.611Z,0.70
2023-03-26T10:12:26.375Z,1.00
2023-03-26T10:15:17.926Z,0.70
2023-03-26T10:18:27.736Z,0.80
2023-03-26T10:21:12.417Z,1.10
2023-03-26T10:24:13.685Z,1.10
2023-03-26T10:27:10.958Z,0.90
2023-03-26T10:30:27.464Z,1.10
2023-03-26T10:33:22.094Z,1.10
2023-03-26T10:36:19.008Z,1.10
2023-03-26T10:39:36.718Z,1.30
2023-03-26T10:42:33.071Z,1.40
2023-03-26T10:45:37.733Z,1.10
2023-03-26T10:48:55.620Z,1.40
2023-03-26T10:51:48.729Z,1.20
2023-03-26T10:54:38.317Z,1.10
2023-03-26T10:57:27.781Z,1.30
2023-03-26T11:00:14.025Z,1.40
2023-03-26T11:03:10.666Z,1.10
2023-03-26T11:06:11.625Z,1.00
2023-03-26T11:08:58.611Z,1.00
2023-03-26T11:11:45.045Z,1.60
2023-03-26T11:14:34.732Z,1.10
2023-03-26T11:17:39.529Z,1.10
2023-03-26T11:20:22.226Z,1.20
2023-03-26T11:23:23.754Z,1.50
2023-03-26T11:26:12.841Z,2.00
2023-03-26T11:29:32.496Z,1.90
2023-03-26T11:32:14.015Z,1.70
2023-03-26T11:35:02.560Z,2.10
2023-03-26T11:37:43.462Z,1.60
2023-03-26T11:40:24.418Z,1.70
2023-03-26T11:43:05.002Z,1.70
2023-03-26T11:45:45.158Z,1.40
2023-03-26T11:48:30.299Z,1.20
2023-03-26T11:51:10.430Z,1.40
2023-03-26T11:53:46.849Z,1.50
2023-03-26T11:56:36.001Z,1.30
2023-03-26T11:59:21.667Z,1.30
2023-03-26T12:02:01.033Z,1.60
2023-03-26T12:04:41.847Z,1.20
2023-03-26T12:07:21.696Z,1.40
2023-03-26T12:10:17.953Z,1.70
2023-03-26T12:12:56.372Z,1.90
2023-03-26T12:15:32.176Z,1.70
2023-03-26T12:18:27.589Z,1.50
2023-03-26T12:21:13.166Z,1.40
2023-03-26T12:24:00.506Z,1.40
2023-03-26T12:26:41.752Z,1.10
2023-03-26T12:29:19.141Z,1.60
2023-03-26T12:32:08.472Z,1.00
2023-03-26T12:34:43.363Z,1.40
2023-03-26T12:37:43.296Z,1.30
2023-03-26T12:40:34.433Z,1.20
2023-03-26T12:44:56.291Z,1.20
2023-03-26T12:47:56.491Z,1.20
2023-03-26T12:49:27.102Z,1.20
2023-03-26T12:52:18.820Z,1.00
2023-03-26T12:55:02.597Z,1.20
2023-03-26T12:58:00.135Z,1.20
2023-03-26T13:01:03.155Z,0.70
2023-03-26T13:04:09.721Z,1.00
2023-03-26T13:07:02.236Z,0.90
2023-03-26T13:09:56.138Z,0.90
2023-03-26T13:12:47.570Z,1.00
2023-03-26T13:15:33.873Z,1.10
2023-03-26T13:18:24.569Z,1.00
2023-03-26T13:21:09.514Z,0.90
2023-03-26T13:23:57.051Z,0.70
2023-03-26T13:26:52.242Z,1.00
2023-03-26T13:29:38.285Z,0.80
2023-03-26T13:32:25.556Z,1.20
2023-03-26T13:35:19.137Z,0.90
2023-03-26T13:38:04.143Z,0.80
2023-03-26T13:40:50.614Z,0.70
2023-03-26T13:43:38.098Z,1.60
2023-03-26T13:46:26.220Z,0.70
2023-03-26T13:49:04.516Z,1.60
2023-03-26T13:51:49.982Z,1.20
2023-03-26T13:54:34.145Z,1.30
2023-03-26T13:57:16.212Z,1.20
2023-03-26T13:59:57.529Z,1.30
2023-03-26T14:02:38.912Z,0.80
2023-03-26T14:05:21.280Z,0.80
2023-03-26T14:08:04.214Z,1.00
2023-03-26T14:10:46.855Z,1.10
2023-03-26T14:13:28.393Z,0.80
2023-03-26T14:16:12.986Z,1.00
2023-03-26T14:18:58.451Z,1.20
2023-03-26T14:21:56.177Z,1.10
2023-03-26T14:24:55.549Z,0.90
2023-03-26T14:27:55.947Z,1.30
2023-03-26T14:30:57.841Z,1.00
2023-03-26T14:33:52.172Z,0.90
2023-03-26T14:36:54.359Z,1.00
2023-03-26T14:39:58.914Z,1.00
2023-03-26T14:42:47.737Z,0.70
2023-03-26T14:45:59.313Z,1.10
2023-03-26T14:49:12.404Z,1.40
2023-03-26T14:52:02.851Z,0.80
2023-03-26T14:54:43.790Z,1.00
2023-03-26T14:57:54.311Z,0.60
2023-03-26T15:01:04.967Z,0.80
2023-03-26T15:04:36.562Z,0.80
2023-03-26T15:07:48.695Z,0.90
2023-03-26T15:11:04.349Z,1.20
2023-03-26T15:14:00.444Z,1.30
2023-03-26T15:17:31.042Z,1.40
2023-03-26T15:20:47.025Z,1.60
2023-03-26T15:24:11.047Z,2.50
2023-03-26T15:27:39.997Z,1.60
2023-03-26T15:31:07.059Z,1.60
2023-03-26T15:34:34.157Z,1.70
2023-03-26T15:38:13.022Z,1.10
2023-03-26T15:41:17.011Z,1.00
2023-03-26T15:44:31.644Z,1.20
2023-03-26T15:47:39.027Z,1.30
2023-03-26T15:50:38.130Z,1.60
2023-03-26T15:53:36.004Z,1.20
2023-03-26T15:56:37.050Z,0.80
2023-03-26T15:59:33.021Z,1.10
2023-03-26T16:02:27.862Z,1.50
2023-03-26T16:05:27.083Z,1.60
2023-03-26T16:08:16.123Z,1.40
2023-03-26T16:10:59.128Z,1.20
2023-03-26T16:13:45.258Z,1.20
2023-03-26T16:25:27.578Z,2.20
2023-03-26T16:28:36.422Z,2.00
2023-03-26T16:31:38.307Z,2.00
2023-03-26T16:34:38.867Z,2.10
2023-03-26T16:37:50.216Z,2.10
2023-03-26T16:40:50.724Z,1.40
2023-03-26T16:43:53.120Z,2.10
2023-03-26T16:46:43.622Z,2.40
2023-03-26T16:50:08.458Z,4.30
2023-03-26T16:52:56.777Z,10.50
2023-03-26T16:55:46.790Z,8.20
2023-03-26T16:58:45.495Z,7.00
2023-03-26T17:01:35.916Z,7.80
2023-03-26T17:04:20.737Z,7.70
2023-03-26T17:07:18.908Z,8.70
2023-03-26T17:10:07.218Z,8.60
2023-03-26T17:12:51.906Z,8.40
2023-03-26T17:15:43.872Z,6.80
2023-03-26T17:18:43.578Z,7.50
2023-03-26T17:21:26.126Z,7.50
2023-03-26T17:24:17.858Z,8.60
2023-03-26T17:27:21.466Z,10.40
2023-03-26T17:30:57.586Z,13.50
2023-03-26T17:33:39.578Z,15.50
2023-03-26T17:36:42.193Z,9.50
2023-03-26T17:40:12.476Z,11.90
2023-03-26T17:43:09.493Z,14.40
2023-03-26T17:46:02.839Z,18.60
2023-03-26T17:48:47.133Z,11.20
2023-03-26T17:51:41.322Z,13.10
2023-03-26T17:54:27.263Z,13.10
2023-03-26T17:57:08.404Z,11.30
2023-03-26T17:59:44.414Z,11.80
2023-03-26T18:02:24.017Z,11.10
2023-03-26T18:05:00.532Z,11.30
2023-03-26T18:08:19.714Z,12.20
2023-03-26T18:11:36.645Z,14.20
2023-03-26T18:14:56.738Z,15.70
2023-03-26T18:17:40.431Z,14.70
2023-03-26T18:20:27.810Z,16.20
2023-03-26T18:23:09.653Z,16.50
2023-03-26T18:25:49.697Z,16.00
2023-03-26T18:28:36.072Z,15.90
2023-03-26T18:31:20.645Z,15.10
2023-03-26T18:34:06.933Z,10.90
2023-03-26T18:36:41.647Z,9.70
2023-03-26T18:39:20.441Z,8.30
2023-03-26T18:41:54.835Z,6.90
2023-03-26T18:44:29.397Z,5.80
2023-03-26T18:47:09.874Z,6.00
2023-03-26T18:49:48.366Z,5.40
2023-03-26T18:52:23.981Z,6.20
2023-03-26T18:55:00.510Z,5.90
2023-03-26T18:57:34.848Z,6.60
2023-03-26T19:00:25.538Z,6.00
2023-03-26T19:03:07.635Z,6.20
2023-03-26T19:05:42.599Z,10.40
2023-03-26T19:08:19.458Z,12.50
2023-03-26T19:10:55.878Z,13.20
2023-03-26T19:13:32.887Z,12.20
2023-03-26T19:16:18.441Z,12.90
2023-03-26T19:18:54.308Z,11.30
2023-03-26T19:21:28.940Z,10.20
2023-03-26T19:24:05.398Z,9.30
2023-03-26T19:26:39.969Z,9.00
2023-03-26T19:29:20.564Z,8.90
2023-03-26T19:32:05.094Z,11.30
2023-03-26T19:34:45.502Z,13.10
2023-03-26T19:37:27.540Z,12.00
2023-03-26T19:40:15.377Z,12.70
2023-03-26T19:42:51.491Z,13.90
2023-03-26T19:45:27.793Z,15.30
2023-03-26T19:48:15.539Z,16.40
2023-03-26T19:51:04.890Z,15.90
2023-03-26T19:53:44.451Z,16.00
2023-03-26T19:56:22.207Z,15.30
2023-03-26T19:58:57.460Z,15.20
2023-03-26T20:01:33.627Z,10.80
2023-03-26T20:04:12.372Z,8.60
2023-03-26T20:06:49.263Z,10.20
2023-03-26T20:09:25.577Z,9.70
2023-03-26T20:11:59.829Z,8.60
2023-03-26T20:14:34.232Z,8.70
2023-03-26T20:17:16.194Z,8.10
2023-03-26T20:19:51.475Z,10.40
2023-03-26T20:22:26.881Z,10.30
2023-03-26T20:25:03.266Z,10.20
2023-03-26T20:27:37.556Z,9.30
2023-03-26T20:30:19.062Z,9.90
2023-03-26T20:33:12.184Z,10.10
2023-03-26T20:35:48.578Z,11.00
2023-03-26T20:38:32.930Z,9.40
2023-03-26T20:41:17.702Z,9.90
2023-03-26T20:43:52.674Z,10.60
2023-03-26T20:46:32.043Z,9.40
2023-03-26T20:49:06.869Z,9.20
2023-03-26T20:51:43.829Z,11.10
2023-03-26T20:54:24.307Z,11.40
2023-03-26T20:56:59.411Z,12.10
2023-03-26T20:59:34.742Z,11.90
2023-03-26T21:02:09.988Z,11.30
2023-03-26T21:04:45.258Z,11.50
2023-03-26T21:07:19.802Z,11.10
2023-03-26T21:09:58.191Z,11.30
2023-03-26T21:12:41.354Z,11.80
2023-03-26T21:15:23.345Z,12.40
2023-03-26T21:17:59.791Z,11.60
2023-03-26T21:20:37.492Z,10.30
2023-03-26T21:23:21.772Z,12.10
2023-03-26T21:26:07.994Z,12.80
2023-03-26T21:28:48.234Z,11.90
2023-03-26T21:31:26.613Z,12.80
2023-03-26T21:34:03.002Z,14.60
2023-03-26T21:36:39.095Z,13.20
2023-03-26T21:39:15.915Z,14.60
2023-03-26T21:42:05.436Z,15.30
2023-03-26T21:44:42.237Z,13.00
2023-03-26T21:47:18.209Z,12.30
2023-03-26T21:49:54.811Z,13.20
2023-03-26T21:52:30.762Z,12.20
2023-03-26T21:55:07.991Z,10.80
2023-03-26T21:58:07.454Z,10.80
2023-03-26T22:00:57.248Z,10.30
2023-03-26T22:03:45.077Z,9.60
2023-03-26T22:06:26.724Z,8.50
2023-03-26T22:09:01.808Z,8.10
2023-03-26T22:11:36.098Z,7.60
2023-03-26T22:14:12.073Z,7.00
2023-03-26T22:16:46.374Z,7.40
2023-03-26T22:19:20.567Z,7.80
2023-03-26T22:21:55.104Z,7.50
2023-03-26T22:24:29.418Z,8.70
2023-03-26T22:27:03.837Z,6.20
2023-03-26T22:29:38.098Z,7.60
2023-03-26T22:32:12.733Z,5.70
2023-03-26T22:34:46.799Z,7.10
2023-03-26T22:37:20.888Z,6.30
2023-03-26T22:39:55.027Z,6.10
2023-03-26T22:42:29.294Z,5.80
2023-03-26T22:45:04.203Z,5.80
2023-03-26T22:47:38.826Z,6.30
2023-03-26T22:50:14.131Z,5.40
2023-03-26T22:52:48.677Z,5.10
2023-03-26T22:55:28.726Z,4.60
2023-03-26T22:58:03.797Z,4.80
2023-03-26T23:00:40.053Z,4.60
2023-03-26T23:03:14.418Z,5.40
2023-03-26T23:05:57.622Z,4.70
2023-03-26T23:08:32.352Z,4.40
2023-03-26T23:11:11.050Z,4.80
2023-03-26T23:13:47.612Z,3.80
2023-03-26T23:16:22.596Z,3.40
2023-03-26T23:18:56.802Z,3.20
2023-03-26T23:21:31.344Z,3.20
2023-03-26T23:24:07.473Z,2.80
2023-03-26T23:26:50.437Z,3.10
2023-03-26T23:29:25.396Z,3.00
2023-03-26T23:31:59.880Z,2.80
2023-03-26T23:34:34.121Z,3.10
2023-03-26T23:37:11.041Z,2.80
2023-03-26T23:39:46.931Z,2.60
2023-03-26T23:42:28.923Z,2.70
2023-03-26T23:45:03.692Z,2.70
2023-03-26T23:47:42.354Z,2.80
2023-03-26T23:50:18.179Z,2.90
2023-03-26T23:52:52.352Z,2.70
2023-03-26T23:55:28.272Z,3.10
2023-03-26T23:58:02.516Z,2.70
